createdAt,value
2018-03-16T00:00:15.890Z,2.30
2018-03-16T00:02:43.457Z,2.30
2018-03-16T00:05:10.971Z,2.40
2018-03-16T00:07:38.574Z,2.30
2018-03-16T00:10:06.069Z,2.30
2018-03-16T00:12:34.388Z,2.30
2018-03-16T00:15:02.681Z,2.30
2018-03-16T00:17:30.209Z,2.30
2018-03-16T00:19:57.716Z,2.30
2018-03-16T00:22:37.407Z,2.30
2018-03-16T00:25:04.905Z,2.20
2018-03-16T00:27:33.179Z,2.20
2018-03-16T00:30:01.465Z,2.20
2018-03-16T00:32:29.761Z,2.20
2018-03-16T00:34:57.359Z,2.20
2018-03-16T00:37:24.919Z,2.30
2018-03-16T00:39:52.425Z,2.30
2018-03-16T00:42:20.697Z,2.40
2018-03-16T00:44:48.629Z,2.40
2018-03-16T00:47:16.165Z,2.30
2018-03-16T00:49:43.669Z,2.30
2018-03-16T00:52:11.194Z,2.20
2018-03-16T00:54:39.504Z,2.30
2018-03-16T00:57:07.738Z,2.20
2018-03-16T00:59:36.025Z,2.20
2018-03-16T01:02:04.296Z,2.20
2018-03-16T01:04:32.603Z,2.10
2018-03-16T01:07:00.110Z,2.10
2018-03-16T01:09:27.628Z,2.10
2018-03-16T01:11:55.121Z,2.10
2018-03-16T01:14:22.629Z,2.10
2018-03-16T01:16:50.891Z,2.10
2018-03-16T01:19:18.420Z,2.10
2018-03-16T01:21:45.979Z,2.10
2018-03-16T01:24:13.505Z,2.10
2018-03-16T01:26:41.779Z,2.10
2018-03-16T01:29:09.401Z,2.10
2018-03-16T01:31:36.891Z,2.10
2018-03-16T01:34:04.402Z,2.10
2018-03-16T01:36:31.961Z,2.10
2018-03-16T01:38:59.477Z,2.10
2018-03-16T01:41:26.984Z,2.00
2018-03-16T01:43:54.509Z,2.00
2018-03-16T01:46:21.991Z,2.10
2018-03-16T01:48:50.281Z,2.10
2018-03-16T01:51:17.802Z,2.00
2018-03-16T01:53:45.361Z,2.10
2018-03-16T01:56:12.851Z,2.00
2018-03-16T01:58:40.415Z,2.00
2018-03-16T02:01:07.919Z,2.00
2018-03-16T02:03:35.420Z,2.00
2018-03-16T02:06:02.908Z,2.00
2018-03-16T02:08:30.438Z,2.00
2018-03-16T02:10:57.968Z,2.00
2018-03-16T02:13:25.770Z,2.10
2018-03-16T02:15:53.258Z,2.10
2018-03-16T02:18:20.759Z,2.00
2018-03-16T02:20:48.271Z,2.00
2018-03-16T02:23:15.778Z,2.00
2018-03-16T02:25:44.047Z,2.00
2018-03-16T02:28:12.298Z,1.90
2018-03-16T02:30:39.796Z,1.90
2018-03-16T02:33:07.302Z,1.90
2018-03-16T02:35:34.823Z,1.90
2018-03-16T02:38:03.395Z,1.90
2018-03-16T02:40:31.670Z,1.90
2018-03-16T02:42:59.165Z,1.90
2018-03-16T02:45:26.714Z,1.90
2018-03-16T02:47:54.979Z,1.80
2018-03-16T02:50:22.485Z,1.80
2018-03-16T02:52:50.023Z,1.80
2018-03-16T02:55:18.309Z,1.80
2018-03-16T02:57:46.572Z,1.80
2018-03-16T03:00:14.894Z,1.80
2018-03-16T03:02:42.405Z,1.80
2018-03-16T03:05:09.927Z,1.80
2018-03-16T03:07:37.564Z,1.80
2018-03-16T03:10:05.837Z,1.70
2018-03-16T03:12:33.361Z,1.70
2018-03-16T03:15:00.891Z,1.80
2018-03-16T03:17:28.408Z,1.80
2018-03-16T03:19:55.979Z,1.80
2018-03-16T03:22:23.497Z,1.80
2018-03-16T03:24:51.021Z,1.80
2018-03-16T03:27:19.308Z,1.80
2018-03-16T03:29:46.859Z,1.80
2018-03-16T03:32:15.250Z,1.70
2018-03-16T03:34:43.592Z,1.60
2018-03-16T03:37:11.083Z,1.60
2018-03-16T03:39:39.341Z,1.60
2018-03-16T03:42:06.838Z,1.60
2018-03-16T03:44:35.118Z,1.60
2018-03-16T03:47:03.397Z,1.60
2018-03-16T03:49:31.654Z,1.50
2018-03-16T03:51:59.164Z,1.50
2018-03-16T03:54:26.687Z,1.50
2018-03-16T03:56:54.217Z,1.50
2018-03-16T03:59:22.409Z,1.50
2018-03-16T04:01:49.928Z,1.50
2018-03-16T04:04:17.459Z,1.50
2018-03-16T04:06:45.016Z,1.50
2018-03-16T04:09:12.510Z,1.50
2018-03-16T04:11:40.865Z,1.50
2018-03-16T04:14:08.367Z,1.50
2018-03-16T04:16:35.881Z,1.50
2018-03-16T04:19:03.368Z,1.50
2018-03-16T04:21:31.645Z,1.50
2018-03-16T04:23:59.173Z,1.50
2018-03-16T04:26:26.670Z,1.50
2018-03-16T04:28:54.173Z,1.50
2018-03-16T04:31:21.694Z,1.50
2018-03-16T04:33:49.240Z,1.40
2018-03-16T04:36:16.747Z,1.40
2018-03-16T04:38:44.299Z,1.40
2018-03-16T04:41:11.858Z,1.30
2018-03-16T04:43:40.127Z,1.30
2018-03-16T04:46:07.622Z,1.30
2018-03-16T04:48:35.887Z,1.30
2018-03-16T04:51:04.178Z,1.30
2018-03-16T04:53:32.440Z,1.30
2018-03-16T04:56:00.935Z,1.30
2018-03-16T04:58:30.503Z,1.40
2018-03-16T05:00:58.023Z,1.30
2018-03-16T05:03:25.552Z,1.30
2018-03-16T05:05:53.108Z,1.30
2018-03-16T05:08:20.603Z,1.30
2018-03-16T05:10:48.891Z,1.30
2018-03-16T05:13:17.147Z,1.20
2018-03-16T05:15:44.769Z,1.20
2018-03-16T05:18:12.310Z,1.30
2018-03-16T05:20:39.816Z,1.30
2018-03-16T05:23:07.329Z,1.20
2018-03-16T05:25:35.597Z,1.20
2018-03-16T05:28:03.867Z,1.20
2018-03-16T05:30:32.169Z,1.20
2018-03-16T05:33:00.454Z,1.20
2018-03-16T05:35:27.996Z,1.10
2018-03-16T05:37:55.507Z,1.10
2018-03-16T05:40:22.999Z,1.20
2018-03-16T05:42:50.517Z,1.20
2018-03-16T05:45:18.012Z,1.10
2018-03-16T05:47:45.526Z,1.10
2018-03-16T05:50:13.898Z,1.20
2018-03-16T05:52:41.403Z,1.20
2018-03-16T05:55:08.895Z,1.10
2018-03-16T05:57:36.425Z,1.10
2018-03-16T06:00:03.934Z,1.10
2018-03-16T06:02:31.446Z,1.00
2018-03-16T06:04:58.931Z,1.00
2018-03-16T06:07:26.496Z,1.10
2018-03-16T06:09:53.998Z,1.10
2018-03-16T06:12:22.324Z,1.00
2018-03-16T06:14:49.826Z,1.00
2018-03-16T06:17:18.856Z,1.00
2018-03-16T06:19:47.121Z,1.00
2018-03-16T06:22:14.636Z,1.00
2018-03-16T06:24:42.258Z,1.00
2018-03-16T06:27:10.621Z,1.10
2018-03-16T06:29:38.120Z,1.00
2018-03-16T06:32:06.384Z,1.00
2018-03-16T06:34:34.655Z,1.10
2018-03-16T06:37:02.942Z,1.10
2018-03-16T06:39:31.269Z,1.10
2018-03-16T06:41:58.774Z,1.00
2018-03-16T06:44:26.270Z,1.10
2018-03-16T06:46:53.810Z,1.10
2018-03-16T06:49:21.314Z,1.10
2018-03-16T06:51:48.812Z,1.10
2018-03-16T06:54:16.320Z,1.00
2018-03-16T06:56:43.838Z,1.00
2018-03-16T06:59:11.323Z,1.10
2018-03-16T07:01:38.835Z,1.10
2018-03-16T07:04:06.335Z,1.10
2018-03-16T07:06:33.852Z,1.10
2018-03-16T07:09:01.364Z,1.20
2018-03-16T07:11:28.867Z,1.20
2018-03-16T07:13:56.530Z,1.20
2018-03-16T07:16:24.019Z,1.10
2018-03-16T07:18:51.547Z,1.10
2018-03-16T07:21:19.820Z,1.10
2018-03-16T07:23:48.115Z,1.10
2018-03-16T07:26:16.377Z,1.10
2018-03-16T07:28:44.645Z,1.10
2018-03-16T07:31:12.176Z,1.10
2018-03-16T07:33:39.695Z,1.10
2018-03-16T07:36:07.972Z,1.00
2018-03-16T07:38:36.244Z,1.00
2018-03-16T07:41:04.504Z,1.00
2018-03-16T07:43:32.012Z,1.00
2018-03-16T07:46:03.130Z,1.10
2018-03-16T07:48:31.410Z,1.10
2018-03-16T07:50:58.890Z,1.10
2018-03-16T07:53:27.173Z,1.10
2018-03-16T07:55:55.444Z,1.10
2018-03-16T07:58:23.001Z,1.10
2018-03-16T08:00:51.469Z,1.10
2018-03-16T08:03:18.976Z,1.00
2018-03-16T08:05:47.276Z,1.20
2018-03-16T08:08:14.970Z,1.10
2018-03-16T08:10:42.455Z,1.20
2018-03-16T08:13:10.072Z,1.20
2018-03-16T08:15:37.580Z,1.20
2018-03-16T08:18:05.097Z,1.30
2018-03-16T08:20:32.612Z,1.30
2018-03-16T08:23:00.106Z,1.30
2018-03-16T08:25:27.595Z,1.40
2018-03-16T08:27:55.620Z,1.40
2018-03-16T08:30:23.119Z,1.30
2018-03-16T08:32:50.627Z,1.30
2018-03-16T08:35:18.134Z,1.30
2018-03-16T08:37:45.674Z,1.20
2018-03-16T08:40:13.465Z,1.20
2018-03-16T08:42:41.029Z,1.20
2018-03-16T08:45:09.278Z,1.40
2018-03-16T08:47:36.787Z,1.40
2018-03-16T08:50:04.325Z,1.50
2018-03-16T08:52:32.571Z,1.50
2018-03-16T08:55:00.076Z,1.50
2018-03-16T08:57:28.333Z,1.40
2018-03-16T08:59:56.641Z,1.20
2018-03-16T09:02:24.140Z,1.20
2018-03-16T09:04:51.679Z,1.10
2018-03-16T09:07:19.212Z,1.10
2018-03-16T09:09:46.848Z,1.20
2018-03-16T09:12:14.382Z,1.30
2018-03-16T09:14:41.899Z,1.30
2018-03-16T09:17:09.397Z,1.20
2018-03-16T09:19:36.904Z,1.10
2018-03-16T09:22:04.382Z,1.10
2018-03-16T09:24:32.078Z,1.20
2018-03-16T09:27:00.408Z,1.20
2018-03-16T09:29:27.916Z,1.10
2018-03-16T09:31:56.163Z,1.00
2018-03-16T09:34:23.776Z,1.00
2018-03-16T09:36:51.310Z,1.10
2018-03-16T09:39:18.828Z,1.10
2018-03-16T09:41:46.312Z,1.10
2018-03-16T09:44:13.819Z,1.20
2018-03-16T09:46:42.101Z,1.00
2018-03-16T09:49:10.409Z,1.00
2018-03-16T09:51:37.932Z,1.00
2018-03-16T09:54:06.243Z,0.90
2018-03-16T09:56:34.516Z,0.90
2018-03-16T09:59:02.012Z,0.80
2018-03-16T10:01:29.949Z,0.90
2018-03-16T10:03:57.446Z,0.90
2018-03-16T10:06:24.932Z,0.90
2018-03-16T10:08:52.460Z,0.90
2018-03-16T10:11:19.993Z,1.00
2018-03-16T10:13:47.502Z,1.00
2018-03-16T10:16:15.036Z,1.10
2018-03-16T10:18:42.648Z,1.10
2018-03-16T10:21:10.182Z,1.20
2018-03-16T10:23:37.681Z,1.30
2018-03-16T10:26:05.818Z,1.30
2018-03-16T10:28:33.310Z,1.20
2018-03-16T10:31:00.797Z,1.10
2018-03-16T10:33:28.315Z,1.10
2018-03-16T10:35:55.844Z,1.20
2018-03-16T10:38:24.106Z,1.10
2018-03-16T10:40:52.362Z,1.10
2018-03-16T10:43:19.873Z,1.20
2018-03-16T10:45:48.142Z,1.20
2018-03-16T10:48:16.469Z,1.20
2018-03-16T10:50:44.268Z,1.20
2018-03-16T10:53:11.768Z,1.20
2018-03-16T10:55:39.285Z,1.20
2018-03-16T10:58:08.489Z,1.20
2018-03-16T11:00:41.612Z,1.30
2018-03-16T11:03:14.788Z,1.20
2018-03-16T11:05:48.786Z,1.20
2018-03-16T11:08:22.159Z,1.20
2018-03-16T11:10:49.668Z,1.20
2018-03-16T11:13:17.940Z,1.10
2018-03-16T11:15:46.264Z,1.10
2018-03-16T11:18:13.804Z,1.10
2018-03-16T11:20:42.166Z,1.00
2018-03-16T11:23:09.742Z,1.00
2018-03-16T11:25:37.352Z,1.00
2018-03-16T11:28:04.856Z,1.10
2018-03-16T11:30:32.995Z,1.10
2018-03-16T11:33:00.555Z,1.10
2018-03-16T11:35:28.073Z,1.20
2018-03-16T11:37:56.336Z,1.20
2018-03-16T11:40:23.866Z,1.10
2018-03-16T11:42:51.378Z,1.10
2018-03-16T11:45:18.907Z,0.90
2018-03-16T11:47:46.428Z,0.90
2018-03-16T11:50:14.733Z,0.90
2018-03-16T11:52:42.236Z,0.90
2018-03-16T11:55:10.368Z,0.80
2018-03-16T11:57:37.886Z,0.80
2018-03-16T12:02:28.446Z,0.70
2018-03-16T12:04:55.956Z,0.80
2018-03-16T12:07:23.462Z,0.80
2018-03-16T12:09:51.970Z,0.60
2018-03-16T12:12:19.483Z,0.60
2018-03-16T12:14:46.988Z,0.60
2018-03-16T12:17:14.725Z,0.70
2018-03-16T12:19:42.239Z,0.70
2018-03-16T12:22:09.728Z,0.70
2018-03-16T12:24:37.236Z,0.60
2018-03-16T12:27:05.500Z,0.80
2018-03-16T12:29:33.884Z,0.80
2018-03-16T12:32:01.369Z,0.80
2018-03-16T12:34:28.861Z,0.90
2018-03-16T12:36:56.430Z,0.90
2018-03-16T12:39:23.950Z,0.90
2018-03-16T12:41:52.252Z,0.90
2018-03-16T12:44:19.780Z,0.90
2018-03-16T12:46:47.275Z,0.90
2018-03-16T12:49:14.764Z,0.80
2018-03-16T12:51:42.433Z,0.80
2018-03-16T12:54:09.826Z,0.60
2018-03-16T12:56:37.350Z,0.60
2018-03-16T12:59:04.837Z,0.60
2018-03-16T13:01:32.340Z,0.60
2018-03-16T13:03:59.849Z,0.60
2018-03-16T13:06:27.352Z,0.70
2018-03-16T13:08:55.606Z,0.80
2018-03-16T13:11:23.114Z,0.70
2018-03-16T13:13:50.769Z,0.80
2018-03-16T13:16:19.046Z,0.70
2018-03-16T13:18:47.298Z,0.60
2018-03-16T13:21:16.645Z,0.60
2018-03-16T13:23:44.248Z,0.70
2018-03-16T13:26:11.882Z,0.70
2018-03-16T13:28:39.398Z,0.60
2018-03-16T13:31:06.978Z,0.60
2018-03-16T13:33:34.523Z,0.70
2018-03-16T13:36:02.065Z,0.70
2018-03-16T13:38:29.610Z,0.80
2018-03-16T13:40:57.132Z,0.80
2018-03-16T13:43:25.418Z,0.80
2018-03-16T13:45:53.061Z,0.70
2018-03-16T13:48:20.608Z,0.70
2018-03-16T13:50:48.144Z,0.60
2018-03-16T13:53:15.679Z,0.50
2018-03-16T13:55:43.964Z,0.40
2018-03-16T13:58:12.284Z,0.40
2018-03-16T14:00:39.794Z,0.40
2018-03-16T14:03:07.378Z,0.40
2018-03-16T14:05:35.650Z,0.30
2018-03-16T14:08:03.976Z,0.40
2018-03-16T14:10:31.602Z,0.40
2018-03-16T14:12:59.882Z,0.40
2018-03-16T14:15:28.143Z,0.30
2018-03-16T14:17:55.716Z,0.30
2018-03-16T14:20:24.026Z,0.30
2018-03-16T14:22:52.336Z,0.30
2018-03-16T14:25:19.864Z,0.30
2018-03-16T14:27:47.371Z,0.30
2018-03-16T14:30:14.881Z,0.30
2018-03-16T14:32:43.150Z,0.20
2018-03-16T14:35:11.404Z,0.20
2018-03-16T14:37:38.946Z,0.20
2018-03-16T14:40:06.498Z,0.20
2018-03-16T14:42:34.046Z,0.20
2018-03-16T14:45:02.314Z,0.10
2018-03-16T14:47:30.610Z,0.10
2018-03-16T14:49:58.900Z,0.10
2018-03-16T14:52:26.398Z,0.10
2018-03-16T14:54:53.925Z,0.20
2018-03-16T14:57:21.450Z,0.20
2018-03-16T14:59:48.998Z,0.20
2018-03-16T15:02:16.542Z,0.20
2018-03-16T15:04:44.054Z,0.30
2018-03-16T15:07:11.612Z,0.30
2018-03-16T15:09:39.230Z,0.40
2018-03-16T15:12:06.824Z,0.40
2018-03-16T15:14:34.390Z,0.30
2018-03-16T15:17:03.862Z,0.30
2018-03-16T15:19:31.375Z,0.30
2018-03-16T15:21:58.964Z,0.30
2018-03-16T15:24:27.282Z,0.20
2018-03-16T15:26:54.842Z,0.20
2018-03-16T15:29:22.415Z,0.30
2018-03-16T15:31:50.139Z,0.30
2018-03-16T15:34:18.434Z,0.30
2018-03-16T15:36:45.923Z,0.30
2018-03-16T15:39:13.440Z,0.30
2018-03-16T15:41:41.080Z,0.40
2018-03-16T15:44:08.596Z,0.50
2018-03-16T15:46:36.114Z,0.50
2018-03-16T15:49:03.634Z,0.50
2018-03-16T15:51:31.164Z,0.50
2018-03-16T15:53:58.720Z,0.50
2018-03-16T15:56:26.997Z,0.50
2018-03-16T15:58:55.300Z,0.50
2018-03-16T16:01:22.826Z,0.50
2018-03-16T16:03:50.342Z,0.60
2018-03-16T16:06:17.862Z,0.60
2018-03-16T16:08:46.152Z,0.70
2018-03-16T16:11:13.649Z,0.70
2018-03-16T16:13:41.171Z,0.60
2018-03-16T16:16:08.678Z,0.60
2018-03-16T16:18:36.329Z,0.50
2018-03-16T16:21:04.332Z,0.50
2018-03-16T16:23:31.871Z,0.50
2018-03-16T16:25:59.518Z,0.50
2018-03-16T16:28:27.810Z,0.50
2018-03-16T16:30:56.142Z,0.40
2018-03-16T16:33:23.634Z,0.40
2018-03-16T16:35:51.125Z,0.40
2018-03-16T16:38:18.794Z,0.30
2018-03-16T16:40:47.228Z,0.30
2018-03-16T16:43:14.713Z,0.30
2018-03-16T16:45:43.037Z,0.20
2018-03-16T16:48:10.546Z,0.10
2018-03-16T16:50:38.044Z,0.20
2018-03-16T16:53:05.930Z,0.20
2018-03-16T16:55:33.518Z,0.20
2018-03-16T16:58:01.022Z,0.20
2018-03-16T17:00:28.600Z,0.20
2018-03-16T17:02:56.880Z,0.20
2018-03-16T17:05:24.406Z,0.20
2018-03-16T17:07:52.618Z,0.20
2018-03-16T17:10:21.408Z,0.20
2018-03-16T17:12:49.666Z,0.10
2018-03-16T17:15:17.189Z,0.10
2018-03-16T17:17:44.734Z,0.20
2018-03-16T17:20:12.386Z,0.10
2018-03-16T17:22:40.665Z,0.10
2018-03-16T17:25:09.022Z,0.20
2018-03-16T17:27:36.516Z,0.20
2018-03-16T17:30:04.782Z,0.20
2018-03-16T17:32:33.109Z,0.20
2018-03-16T17:35:03.199Z,0.10
2018-03-16T17:37:31.669Z,0.00
2018-03-16T17:40:00.049Z,0.00
2018-03-16T17:42:27.602Z,0.00
2018-03-16T17:44:55.118Z,0.00
2018-03-16T17:47:22.634Z,0.00
2018-03-16T17:49:50.981Z,0.00
2018-03-16T17:52:18.476Z,0.00
2018-03-16T17:54:45.977Z,0.00
2018-03-16T17:57:14.126Z,-0.10
2018-03-16T17:59:41.632Z,-0.10
2018-03-16T18:02:09.178Z,-0.10
2018-03-16T18:04:37.451Z,-0.10
2018-03-16T18:07:05.770Z,-0.10
2018-03-16T18:09:34.013Z,-0.10
2018-03-16T18:12:02.274Z,0.00
2018-03-16T18:14:30.658Z,0.00
2018-03-16T18:16:58.254Z,-0.10
2018-03-16T18:19:25.835Z,-0.10
2018-03-16T18:21:53.342Z,-0.10
2018-03-16T18:24:20.832Z,-0.20
2018-03-16T18:26:49.111Z,-0.10
2018-03-16T18:29:17.378Z,-0.20
2018-03-16T18:31:44.991Z,-0.20
2018-03-16T18:34:13.380Z,-0.20
2018-03-16T18:36:40.888Z,-0.10
2018-03-16T18:39:09.884Z,-0.10
2018-03-16T18:41:37.386Z,-0.10
2018-03-16T18:44:04.987Z,-0.10
2018-03-16T18:46:32.583Z,-0.20
2018-03-16T18:49:00.081Z,-0.20
2018-03-16T18:51:27.834Z,-0.20
2018-03-16T18:53:56.149Z,-0.30
2018-03-16T18:56:23.672Z,-0.30
2018-03-16T18:58:51.977Z,-0.40
2018-03-16T19:01:19.482Z,-0.50
2018-03-16T19:03:47.067Z,-0.50
2018-03-16T19:06:14.595Z,-0.50
2018-03-16T19:08:42.107Z,-0.60
2018-03-16T19:11:10.554Z,-0.70
2018-03-16T19:13:38.070Z,-0.70
2018-03-16T19:16:05.582Z,-0.60
2018-03-16T19:18:33.063Z,-0.70
2018-03-16T19:21:00.582Z,-0.70
2018-03-16T19:23:28.158Z,-0.80
2018-03-16T19:25:55.708Z,-0.70
2018-03-16T19:28:23.210Z,-0.70
2018-03-16T19:30:50.726Z,-0.70
2018-03-16T19:33:18.221Z,-0.80
2018-03-16T19:35:45.741Z,-0.70
2018-03-16T19:38:13.259Z,-0.60
2018-03-16T19:40:40.836Z,-0.60
2018-03-16T19:43:08.343Z,-0.60
2018-03-16T19:45:35.842Z,-0.60
2018-03-16T19:48:03.370Z,-0.60
2018-03-16T19:50:30.893Z,-0.60
2018-03-16T19:52:58.457Z,-0.60
2018-03-16T19:55:26.833Z,-0.60
2018-03-16T19:57:55.119Z,-0.60
2018-03-16T20:00:22.679Z,-0.60
2018-03-16T20:02:50.326Z,-0.50
2018-03-16T20:05:17.917Z,-0.60
2018-03-16T20:07:45.793Z,-0.60
2018-03-16T20:10:14.343Z,-0.70
2018-03-16T20:12:41.957Z,-0.70
2018-03-16T20:15:11.055Z,-0.70
2018-03-16T20:17:39.420Z,-0.70
2018-03-16T20:20:06.934Z,-0.70
2018-03-16T20:22:34.470Z,-0.70
2018-03-16T20:25:02.893Z,-0.70
2018-03-16T20:27:31.185Z,-0.70
2018-03-16T20:29:58.687Z,-0.70
2018-03-16T20:32:26.973Z,-0.70
2018-03-16T20:34:55.250Z,-0.70
2018-03-16T20:37:23.537Z,-0.70
2018-03-16T20:39:51.041Z,-0.80
2018-03-16T20:42:18.896Z,-0.80
2018-03-16T20:44:46.414Z,-0.80
2018-03-16T20:47:13.945Z,-0.80
2018-03-16T20:49:41.599Z,-0.80
2018-03-16T20:52:09.108Z,-0.80
2018-03-16T20:54:36.821Z,-0.80
2018-03-16T20:57:04.330Z,-0.90
2018-03-16T20:59:31.856Z,-0.90
2018-03-16T21:01:59.378Z,-1.00
2018-03-16T21:04:26.934Z,-1.00
2018-03-16T21:06:54.448Z,-1.00
2018-03-16T21:09:21.971Z,-1.00
2018-03-16T21:11:49.489Z,-1.10
2018-03-16T21:14:17.081Z,-1.10
2018-03-16T21:16:44.573Z,-1.10
2018-03-16T21:19:12.885Z,-1.20
2018-03-16T21:21:40.420Z,-1.20
2018-03-16T21:24:08.779Z,-1.20
2018-03-16T21:26:36.307Z,-1.20
2018-03-16T21:29:03.841Z,-1.20
2018-03-16T21:31:32.161Z,-1.20
2018-03-16T21:33:59.741Z,-1.20
2018-03-16T21:36:28.157Z,-1.10
2018-03-16T21:38:55.707Z,-1.10
2018-03-16T21:41:23.971Z,-1.20
2018-03-16T21:43:52.092Z,-1.00
2018-03-16T21:46:19.715Z,-1.20
2018-03-16T21:48:47.289Z,-1.20
2018-03-16T21:51:14.837Z,-1.20
2018-03-16T21:53:42.373Z,-1.30
2018-03-16T21:56:09.869Z,-1.40
2018-03-16T21:58:37.406Z,-1.40
2018-03-16T22:01:05.841Z,-1.40
2018-03-16T22:03:34.108Z,-1.40
2018-03-16T22:06:01.639Z,-1.40
2018-03-16T22:08:29.343Z,-1.40
2018-03-16T22:10:57.721Z,-1.40
2018-03-16T22:13:25.235Z,-1.40
2018-03-16T22:15:52.854Z,-1.40
2018-03-16T22:18:20.403Z,-1.40
2018-03-16T22:20:47.945Z,-1.40
2018-03-16T22:23:15.443Z,-1.50
2018-03-16T22:25:42.971Z,-1.50
2018-03-16T22:28:10.525Z,-1.50
2018-03-16T22:30:38.037Z,-1.50
2018-03-16T22:33:06.330Z,-1.60
2018-03-16T22:35:36.518Z,-1.50
2018-03-16T22:38:04.024Z,-1.60
2018-03-16T22:40:32.359Z,-1.50
2018-03-16T22:42:59.855Z,-1.60
2018-03-16T22:45:28.130Z,-1.60
2018-03-16T22:47:56.614Z,-1.60
2018-03-16T22:50:24.113Z,-1.60
2018-03-16T22:52:51.889Z,-1.60
2018-03-16T22:55:20.055Z,-1.60
2018-03-16T22:57:48.351Z,-1.70
2018-03-16T23:00:19.976Z,-1.70
2018-03-16T23:02:48.259Z,-1.70
2018-03-16T23:05:16.543Z,-1.70
2018-03-16T23:07:44.839Z,-1.80
2018-03-16T23:10:12.981Z,-1.80
2018-03-16T23:12:40.510Z,-1.70
2018-03-16T23:15:08.049Z,-1.80
2018-03-16T23:17:35.586Z,-1.70
2018-03-16T23:20:04.103Z,-1.70
2018-03-16T23:22:31.658Z,-1.80
2018-03-16T23:24:59.139Z,-1.70
2018-03-16T23:27:26.726Z,-1.70
2018-03-16T23:29:54.256Z,-1.80
2018-03-16T23:32:21.792Z,-1.80
2018-03-16T23:34:50.045Z,-1.90
2018-03-16T23:37:18.327Z,-1.90
2018-03-16T23:39:45.992Z,-2.00
2018-03-16T23:42:13.494Z,-2.00
2018-03-16T23:44:41.751Z,-2.10
2018-03-16T23:47:10.043Z,-2.00
2018-03-16T23:49:38.306Z,-2.10
2018-03-16T23:52:05.818Z,-2.10
2018-03-16T23:54:34.944Z,-2.10
2018-03-16T23:57:02.468Z,-2.10
2018-03-16T23:59:29.975Z,-2.10
